createdAt,value
2022-11-29T00:02:10.318Z,1.37
2022-11-29T00:05:12.857Z,1.43
2022-11-29T00:08:16.679Z,1.56
2022-11-29T00:11:39.899Z,1.52
2022-11-29T00:14:42.910Z,1.66
2022-11-29T00:17:45.551Z,1.61
2022-11-29T00:20:48.000Z,1.51
2022-11-29T00:23:51.840Z,1.59
2022-11-29T00:26:54.272Z,1.65
2022-11-29T00:29:56.722Z,1.61
2022-11-29T00:32:59.163Z,1.68
2022-11-29T00:36:01.646Z,1.63
2022-11-29T00:39:06.675Z,1.68
2022-11-29T00:42:09.105Z,1.74
2022-11-29T00:45:12.109Z,1.65
2022-11-29T00:48:14.511Z,1.58
2022-11-29T00:51:16.955Z,1.64
2022-11-29T00:54:20.737Z,1.43
2022-11-29T00:57:23.303Z,1.37
2022-11-29T01:00:25.731Z,1.31
2022-11-29T01:03:28.252Z,1.29
2022-11-29T01:06:30.816Z,1.20
2022-11-29T01:09:34.563Z,1.34
2022-11-29T01:12:38.138Z,1.43
2022-11-29T01:15:41.284Z,1.46
2022-11-29T01:18:44.398Z,1.41
2022-11-29T01:21:46.763Z,1.27
2022-11-29T01:24:50.655Z,1.26
2022-11-29T01:27:54.267Z,1.17
2022-11-29T01:30:57.061Z,1.00
2022-11-29T01:34:01.244Z,1.16
2022-11-29T01:37:03.696Z,1.26
2022-11-29T01:40:08.825Z,1.33
2022-11-29T01:43:16.203Z,1.15
2022-11-29T01:46:18.840Z,1.24
2022-11-29T01:49:27.141Z,1.17
2022-11-29T01:52:32.663Z,1.04
2022-11-29T01:55:40.559Z,1.08
2022-11-29T01:58:45.103Z,1.01
2022-11-29T02:01:47.663Z,1.08
2022-11-29T02:04:50.543Z,1.05
2022-11-29T02:07:56.259Z,1.05
2022-11-29T02:11:26.210Z,1.25
2022-11-29T02:14:47.458Z,1.11
2022-11-29T02:18:02.694Z,1.33
2022-11-29T02:21:20.493Z,1.33
2022-11-29T02:24:50.565Z,1.42
2022-11-29T02:28:43.379Z,1.34
2022-11-29T02:32:27.904Z,1.31
2022-11-29T02:36:08.558Z,1.28
2022-11-29T02:39:52.976Z,1.27
2022-11-29T02:43:12.020Z,1.35
2022-11-29T02:46:44.303Z,1.15
2022-11-29T02:50:09.000Z,1.25
2022-11-29T02:53:18.651Z,1.11
2022-11-29T02:56:27.220Z,1.14
2022-11-29T02:59:42.748Z,1.28
2022-11-29T03:02:53.866Z,1.21
2022-11-29T03:06:07.948Z,0.82
2022-11-29T03:09:19.177Z,0.84
2022-11-29T03:12:32.435Z,0.91
2022-11-29T03:15:41.732Z,0.83
2022-11-29T03:18:58.053Z,1.06
2022-11-29T03:22:10.783Z,1.17
2022-11-29T03:25:22.932Z,1.17
2022-11-29T03:28:31.834Z,1.06
2022-11-29T03:31:39.718Z,1.25
2022-11-29T03:34:58.302Z,1.01
2022-11-29T03:38:09.464Z,1.11
2022-11-29T03:41:20.926Z,1.05
2022-11-29T03:44:28.279Z,0.91
2022-11-29T03:47:36.682Z,1.00
2022-11-29T03:50:43.331Z,1.27
2022-11-29T03:53:50.663Z,0.95
2022-11-29T03:56:55.398Z,1.20
2022-11-29T04:00:05.701Z,1.35
2022-11-29T04:03:49.242Z,1.30
2022-11-29T04:07:06.896Z,1.13
2022-11-29T04:10:19.766Z,0.81
2022-11-29T04:13:57.797Z,1.18
2022-11-29T04:17:29.508Z,0.97
2022-11-29T04:21:12.718Z,1.22
2022-11-29T04:25:03.549Z,1.07
2022-11-29T04:28:48.704Z,1.18
2022-11-29T04:32:14.699Z,1.15
2022-11-29T04:35:32.732Z,1.14
2022-11-29T04:39:00.715Z,1.19
2022-11-29T04:42:36.744Z,1.05
2022-11-29T04:46:05.407Z,1.42
2022-11-29T04:49:37.313Z,1.25
2022-11-29T04:52:56.606Z,1.32
2022-11-29T04:56:11.475Z,1.26
2022-11-29T04:59:21.558Z,1.17
2022-11-29T05:02:33.145Z,1.27
2022-11-29T05:05:43.333Z,1.23
2022-11-29T05:08:52.609Z,1.33
2022-11-29T05:12:08.091Z,1.30
2022-11-29T05:15:38.366Z,1.24
2022-11-29T05:19:04.755Z,1.43
2022-11-29T05:22:22.536Z,1.74
2022-11-29T05:25:37.170Z,1.56
2022-11-29T05:28:50.281Z,1.78
2022-11-29T05:32:21.133Z,1.97
2022-11-29T05:36:02.116Z,1.74
2022-11-29T05:39:25.935Z,1.58
2022-11-29T05:43:04.040Z,1.65
2022-11-29T05:46:12.817Z,1.55
2022-11-29T05:49:24.089Z,1.78
2022-11-29T05:52:39.493Z,1.66
2022-11-29T05:55:53.061Z,1.79
2022-11-29T05:59:00.005Z,1.84
2022-11-29T06:02:10.000Z,1.93
2022-11-29T06:05:20.445Z,1.91
2022-11-29T06:08:34.199Z,1.98
2022-11-29T06:11:44.947Z,1.89
2022-11-29T06:15:17.324Z,1.94
2022-11-29T06:18:40.564Z,1.88
2022-11-29T06:21:50.644Z,1.95
2022-11-29T06:25:12.130Z,1.95
2022-11-29T06:28:28.488Z,2.01
2022-11-29T06:31:34.378Z,1.91
2022-11-29T06:34:45.402Z,1.79
2022-11-29T06:37:51.147Z,1.81
2022-11-29T06:41:01.567Z,1.93
2022-11-29T06:44:19.157Z,2.18
2022-11-29T06:47:28.527Z,2.18
2022-11-29T06:51:03.141Z,1.95
2022-11-29T06:54:17.300Z,1.99
2022-11-29T06:57:25.854Z,2.08
2022-11-29T07:00:39.394Z,1.65
2022-11-29T07:03:54.372Z,1.64
2022-11-29T07:06:57.341Z,1.84
2022-11-29T07:10:02.933Z,1.72
2022-11-29T07:13:05.945Z,1.80
2022-11-29T07:16:17.393Z,1.90
2022-11-29T07:19:33.208Z,1.93
2022-11-29T07:22:56.282Z,1.90
2022-11-29T07:26:09.841Z,1.98
2022-11-29T07:29:24.602Z,2.01
2022-11-29T07:32:40.162Z,1.94
2022-11-29T07:35:50.339Z,2.10
2022-11-29T07:39:01.693Z,1.93
2022-11-29T07:42:11.949Z,2.03
2022-11-29T07:45:21.430Z,1.77
2022-11-29T07:52:04.609Z,2.09
2022-11-29T07:55:17.096Z,2.11
2022-11-29T07:58:21.190Z,2.07
2022-11-29T08:01:23.855Z,1.87
2022-11-29T08:04:27.855Z,1.97
2022-11-29T08:07:30.804Z,2.19
2022-11-29T08:10:34.605Z,2.28
2022-11-29T08:13:43.949Z,2.23
2022-11-29T08:16:49.319Z,2.21
2022-11-29T08:19:54.347Z,2.11
2022-11-29T08:22:59.171Z,2.34
2022-11-29T08:26:02.520Z,2.03
2022-11-29T08:29:05.210Z,2.20
2022-11-29T08:32:08.998Z,1.94
2022-11-29T08:35:14.647Z,1.99
2022-11-29T08:38:17.231Z,2.18
2022-11-29T08:41:19.659Z,2.18
2022-11-29T08:44:22.342Z,2.29
2022-11-29T08:47:36.754Z,2.33
2022-11-29T08:50:41.045Z,2.15
2022-11-29T08:53:44.649Z,2.05
2022-11-29T08:57:31.048Z,2.04
2022-11-29T09:00:11.192Z,2.23
2022-11-29T09:03:32.105Z,2.01
2022-11-29T09:06:40.194Z,2.11
2022-11-29T09:09:42.887Z,2.42
2022-11-29T09:12:45.788Z,2.55
2022-11-29T09:15:48.490Z,2.77
2022-11-29T09:18:55.940Z,2.61
2022-11-29T09:21:59.959Z,2.62
2022-11-29T09:25:02.431Z,2.92
2022-11-29T09:28:05.775Z,2.99
2022-11-29T09:31:10.362Z,3.02
2022-11-29T09:34:13.602Z,3.24
2022-11-29T09:37:17.438Z,3.15
2022-11-29T09:40:25.916Z,3.23
2022-11-29T09:43:38.934Z,3.10
2022-11-29T09:46:52.242Z,3.13
2022-11-29T09:50:16.767Z,2.90
2022-11-29T09:53:38.151Z,3.14
2022-11-29T09:56:47.329Z,3.14
2022-11-29T09:59:53.049Z,3.24
2022-11-29T10:03:02.149Z,3.34
2022-11-29T10:06:11.651Z,3.38
2022-11-29T10:09:22.509Z,3.39
2022-11-29T10:12:35.088Z,3.38
2022-11-29T10:15:43.205Z,3.34
2022-11-29T10:18:50.467Z,3.36
2022-11-29T10:22:01.928Z,3.60
2022-11-29T10:25:10.659Z,3.27
2022-11-29T10:28:15.798Z,3.29
2022-11-29T10:31:21.960Z,3.00
2022-11-29T10:34:26.622Z,2.82
2022-11-29T10:37:32.731Z,2.52
2022-11-29T10:40:39.805Z,2.65
2022-11-29T10:43:43.184Z,3.01
2022-11-29T10:46:45.647Z,3.24
2022-11-29T10:49:48.501Z,3.59
2022-11-29T10:52:53.629Z,3.49
2022-11-29T10:56:06.033Z,3.56
2022-11-29T10:59:20.244Z,3.61
2022-11-29T11:02:24.290Z,3.77
2022-11-29T11:05:27.240Z,3.72
2022-11-29T11:08:32.609Z,3.73
2022-11-29T11:11:36.948Z,3.55
2022-11-29T11:14:39.557Z,3.66
2022-11-29T11:17:59.617Z,3.89
2022-11-29T11:24:32.142Z,3.70
2022-11-29T11:27:40.331Z,3.78
2022-11-29T11:30:50.899Z,4.13
2022-11-29T11:33:53.659Z,4.08
2022-11-29T11:37:19.036Z,4.16
2022-11-29T11:40:28.937Z,4.17
2022-11-29T11:43:34.042Z,3.80
2022-11-29T11:46:48.302Z,3.55
2022-11-29T11:49:55.950Z,3.77
2022-11-29T11:53:02.269Z,3.48
2022-11-29T11:56:07.789Z,3.75
2022-11-29T11:59:20.006Z,4.05
2022-11-29T12:02:35.940Z,3.96
2022-11-29T12:05:41.449Z,3.85
2022-11-29T12:08:49.400Z,3.76
2022-11-29T12:12:00.527Z,3.27
2022-11-29T12:15:08.563Z,3.28
2022-11-29T12:18:14.269Z,3.59
2022-11-29T12:21:22.757Z,3.93
2022-11-29T12:24:31.400Z,4.14
2022-11-29T12:27:34.121Z,4.21
2022-11-29T12:30:41.992Z,4.02
2022-11-29T12:33:50.882Z,4.20
2022-11-29T12:36:59.740Z,4.31
2022-11-29T12:40:06.719Z,4.22
2022-11-29T12:43:18.644Z,4.08
2022-11-29T12:46:26.334Z,4.17
2022-11-29T12:49:34.549Z,4.04
2022-11-29T12:52:45.410Z,3.95
2022-11-29T12:55:57.263Z,3.86
2022-11-29T12:59:29.576Z,3.98
2022-11-29T13:02:44.442Z,3.81
2022-11-29T13:05:58.372Z,3.18
2022-11-29T13:09:32.870Z,3.40
2022-11-29T13:12:39.897Z,3.67
2022-11-29T13:16:31.247Z,3.30
2022-11-29T13:19:57.592Z,3.63
2022-11-29T13:23:08.687Z,3.64
2022-11-29T13:26:12.866Z,3.43
2022-11-29T13:29:18.211Z,3.53
2022-11-29T13:32:31.668Z,3.76
2022-11-29T13:35:43.088Z,3.57
2022-11-29T13:38:57.140Z,3.67
2022-11-29T13:42:08.600Z,3.36
2022-11-29T13:45:21.462Z,3.12
2022-11-29T13:48:45.876Z,2.98
2022-11-29T13:52:04.551Z,2.80
2022-11-29T13:55:31.733Z,2.95
2022-11-29T13:58:37.273Z,2.91
2022-11-29T14:01:45.810Z,2.93
2022-11-29T14:04:48.556Z,2.96
2022-11-29T14:08:26.220Z,2.85
2022-11-29T14:11:33.577Z,2.60
2022-11-29T14:14:48.373Z,2.72
2022-11-29T14:17:54.533Z,2.84
2022-11-29T14:20:58.246Z,2.97
2022-11-29T14:24:41.080Z,2.65
2022-11-29T14:28:04.529Z,2.47
2022-11-29T14:31:08.074Z,2.49
2022-11-29T14:34:15.905Z,2.44
2022-11-29T14:37:30.805Z,2.53
2022-11-29T14:40:44.410Z,2.64
2022-11-29T14:43:48.783Z,2.25
2022-11-29T14:47:01.004Z,2.29
2022-11-29T14:50:09.337Z,2.16
2022-11-29T14:53:29.687Z,2.20
2022-11-29T14:56:39.172Z,1.96
2022-11-29T14:59:49.368Z,1.78
2022-11-29T15:02:55.298Z,1.91
2022-11-29T15:05:59.780Z,1.89
2022-11-29T15:09:05.940Z,1.92
2022-11-29T15:12:17.070Z,2.09
2022-11-29T15:15:32.824Z,2.19
2022-11-29T15:18:55.086Z,2.37
2022-11-29T15:22:07.403Z,2.33
2022-11-29T15:25:12.872Z,2.27
2022-11-29T15:28:21.953Z,2.27
2022-11-29T15:31:24.582Z,2.27
2022-11-29T15:34:32.004Z,2.29
2022-11-29T15:37:44.463Z,2.39
2022-11-29T15:40:52.768Z,2.24
2022-11-29T15:43:59.326Z,2.37
2022-11-29T15:47:21.672Z,2.39
2022-11-29T15:50:26.137Z,2.45
2022-11-29T15:53:34.178Z,2.28
2022-11-29T15:56:42.469Z,2.36
2022-11-29T15:59:48.905Z,2.44
2022-11-29T16:02:55.998Z,2.52
2022-11-29T16:06:05.825Z,2.20
2022-11-29T16:09:11.950Z,2.15
2022-11-29T16:12:17.564Z,1.92
2022-11-29T16:15:28.925Z,2.10
2022-11-29T16:18:33.660Z,1.98
2022-11-29T16:21:36.271Z,2.20
2022-11-29T16:24:40.255Z,2.27
2022-11-29T16:27:43.317Z,2.30
2022-11-29T16:30:47.806Z,2.20
2022-11-29T16:33:52.541Z,2.16
2022-11-29T16:37:01.901Z,2.31
2022-11-29T16:40:06.003Z,2.26
2022-11-29T16:43:20.579Z,2.24
2022-11-29T16:46:33.925Z,2.33
2022-11-29T16:49:36.819Z,2.26
2022-11-29T16:52:39.294Z,2.19
2022-11-29T16:55:41.798Z,2.33
2022-11-29T16:59:20.491Z,2.26
2022-11-29T17:02:12.232Z,2.45
2022-11-29T17:05:14.961Z,2.35
2022-11-29T17:08:17.652Z,2.39
2022-11-29T17:11:20.189Z,2.24
2022-11-29T17:14:23.163Z,2.23
2022-11-29T17:17:27.082Z,2.25
2022-11-29T17:20:29.547Z,2.32
2022-11-29T17:23:32.629Z,2.40
2022-11-29T17:26:35.183Z,2.39
2022-11-29T17:29:37.619Z,2.54
2022-11-29T17:32:41.675Z,2.44
2022-11-29T17:35:44.602Z,2.39
2022-11-29T17:38:47.794Z,2.37
2022-11-29T17:41:50.588Z,2.35
2022-11-29T17:44:53.086Z,2.29
2022-11-29T17:47:58.907Z,2.36
2022-11-29T17:51:01.999Z,2.33
2022-11-29T17:54:04.844Z,2.48
2022-11-29T17:57:07.543Z,2.45
2022-11-29T18:00:13.366Z,2.58
2022-11-29T18:03:23.087Z,2.62
2022-11-29T18:06:30.505Z,2.64
2022-11-29T18:09:33.285Z,2.68
2022-11-29T18:12:36.263Z,2.34
2022-11-29T18:15:38.816Z,2.39
2022-11-29T18:18:43.390Z,2.39
2022-11-29T18:21:46.634Z,2.39
2022-11-29T18:24:50.672Z,2.55
2022-11-29T18:27:53.307Z,2.44
2022-11-29T18:30:56.544Z,2.37
2022-11-29T18:34:06.223Z,2.42
2022-11-29T18:37:15.277Z,2.37
2022-11-29T18:40:20.855Z,2.60
2022-11-29T18:43:23.557Z,2.78
2022-11-29T18:46:32.140Z,2.68
2022-11-29T18:49:36.424Z,2.69
2022-11-29T18:52:40.822Z,2.76
2022-11-29T18:55:43.651Z,2.72
2022-11-29T18:58:47.787Z,2.70
2022-11-29T19:01:50.926Z,2.64
2022-11-29T19:04:55.088Z,2.72
2022-11-29T19:07:57.837Z,2.74
2022-11-29T19:11:04.149Z,2.82
2022-11-29T19:14:11.583Z,2.74
2022-11-29T19:17:14.314Z,2.75
2022-11-29T19:20:18.532Z,2.79
2022-11-29T19:23:21.808Z,2.89
2022-11-29T19:26:26.683Z,2.93
2022-11-29T19:29:29.196Z,2.72
2022-11-29T19:32:31.801Z,2.71
2022-11-29T19:35:36.006Z,2.73
2022-11-29T19:38:39.687Z,2.84
2022-11-29T19:41:44.889Z,2.87
2022-11-29T19:45:15.294Z,2.93
2022-11-29T19:48:10.421Z,2.83
2022-11-29T19:51:18.931Z,2.85
2022-11-29T19:54:21.912Z,2.68
2022-11-29T19:57:24.395Z,2.66
2022-11-29T20:00:28.215Z,2.69
2022-11-29T20:03:30.906Z,2.73
2022-11-29T20:06:35.067Z,2.67
2022-11-29T20:09:38.332Z,2.87
2022-11-29T20:12:42.067Z,2.87
2022-11-29T20:15:44.985Z,2.85
2022-11-29T20:18:51.222Z,2.84
2022-11-29T20:21:56.252Z,2.84
2022-11-29T20:24:59.011Z,2.85
2022-11-29T20:28:04.072Z,2.87
2022-11-29T20:31:07.848Z,2.91
2022-11-29T20:34:12.220Z,2.96
2022-11-29T20:37:32.886Z,3.03
2022-11-29T20:40:43.197Z,2.86
2022-11-29T20:43:50.436Z,2.95
2022-11-29T20:46:53.202Z,3.13
2022-11-29T20:49:57.177Z,3.19
2022-11-29T20:53:22.195Z,3.26
2022-11-29T20:56:24.929Z,3.16
2022-11-29T20:59:28.440Z,3.11
2022-11-29T21:02:31.159Z,3.17
2022-11-29T21:05:37.317Z,3.07
2022-11-29T21:08:41.513Z,3.17
2022-11-29T21:11:44.570Z,3.17
2022-11-29T21:14:47.798Z,3.02
2022-11-29T21:17:50.973Z,3.06
2022-11-29T21:21:02.961Z,3.09
2022-11-29T21:24:18.005Z,3.16
2022-11-29T21:27:26.798Z,3.02
2022-11-29T21:30:29.905Z,3.15
2022-11-29T21:33:34.104Z,3.27
2022-11-29T21:36:37.327Z,3.42
2022-11-29T21:39:41.809Z,3.42
2022-11-29T21:42:44.214Z,3.38
2022-11-29T21:45:47.900Z,3.44
2022-11-29T21:48:51.921Z,3.42
2022-11-29T21:51:57.488Z,3.35
2022-11-29T21:55:01.419Z,3.50
2022-11-29T21:58:03.838Z,3.38
2022-11-29T22:01:11.761Z,3.45
2022-11-29T22:04:14.349Z,3.41
2022-11-29T22:07:16.875Z,3.36
2022-11-29T22:10:20.784Z,3.49
2022-11-29T22:13:23.304Z,3.55
2022-11-29T22:16:26.099Z,3.64
2022-11-29T22:19:30.660Z,3.52
2022-11-29T22:22:33.309Z,3.48
2022-11-29T22:25:37.075Z,3.50
2022-11-29T22:28:39.511Z,3.38
2022-11-29T22:31:42.480Z,3.55
2022-11-29T22:34:45.172Z,3.63
2022-11-29T22:37:48.030Z,3.46
2022-11-29T22:40:52.475Z,3.51
2022-11-29T22:43:55.003Z,3.36
2022-11-29T22:46:57.493Z,3.44
2022-11-29T22:50:01.041Z,3.47
2022-11-29T22:53:04.511Z,3.49
2022-11-29T22:56:10.765Z,3.61
2022-11-29T22:59:14.001Z,3.44
2022-11-29T23:02:16.423Z,3.49
2022-11-29T23:05:18.863Z,3.61
2022-11-29T23:08:21.320Z,3.41
2022-11-29T23:11:27.286Z,3.47
2022-11-29T23:14:29.720Z,3.43
2022-11-29T23:17:32.154Z,3.38
2022-11-29T23:20:34.763Z,3.45
2022-11-29T23:23:38.352Z,3.43
2022-11-29T23:26:44.012Z,3.53
2022-11-29T23:29:46.420Z,3.39
2022-11-29T23:32:48.840Z,3.36
2022-11-29T23:35:51.578Z,3.48
2022-11-29T23:38:54.146Z,3.56
2022-11-29T23:41:57.881Z,3.69
2022-11-29T23:45:00.348Z,3.65
2022-11-29T23:48:02.891Z,3.46
2022-11-29T23:51:05.347Z,3.52
2022-11-29T23:54:07.992Z,3.56
2022-11-29T23:57:11.774Z,3.37
